Time;durP1;ratioP1;P1;durP2;ratioP2;P2;SDS_P1;SDS_P2;PMS_P1;PMS_P2;Temp;Humidity;BMP_temperature;BMP_pressure;BME280_temperature;BME280_humidity;BME280_pressure;Samples;Min_cycle;Max_cycle;Signal;HPM_P1;HPM_P2
2022/10/23 00:01:11;;;;;;;26.03;4.27;;;11.20;43.00;;;;;;5077858;28;20391;-84
2022/10/23 00:06:58;;;;;;;12.53;3.90;;;11.20;42.90;;;;;;5077840;28;20412;-84
2022/10/23 00:13:12;;;;;;;7.47;4.20;;;11.10;43.00;;;;;;5075434;28;20236;-84
2022/10/23 00:19:48;;;;;;;16.23;4.77;;;11.10;43.00;;;;;;5076452;28;20363;-84
2022/10/23 00:25:37;;;;;;;10.47;4.00;;;11.10;43.00;;;;;;5096530;28;20448;-84
2022/10/23 00:28:18;;;;;;;10.00;4.53;;;11.00;46.90;;;;;;5078990;28;20788;-83
2022/10/23 00:38:00;;;;;;;10.70;4.77;;;10.90;42.80;;;;;;5090024;28;20817;-84
2022/10/23 00:44:07;;;;;;;30.17;4.53;;;10.80;42.60;;;;;;5076925;28;20535;-85
2022/10/23 00:53:19;;;;;;;14.53;4.30;;;10.80;42.50;;;;;;5095569;28;20439;-84
2022/10/23 00:55:56;;;;;;;20.60;4.20;;;10.70;42.50;;;;;;5089354;28;20443;-84
2022/10/23 01:01:44;;;;;;;8.37;4.53;;;10.70;42.50;;;;;;5083179;28;20473;-89
2022/10/23 01:07:42;;;;;;;15.43;4.13;;;10.70;42.50;;;;;;5076276;28;20325;-89
2022/10/23 01:23:59;;;;;;;34.67;4.17;;;10.70;43.00;;;;;;5075861;28;20369;-84
2022/10/23 01:27:01;;;;;;;18.43;4.73;;;10.70;46.60;;;;;;5080077;28;20429;-84
2022/10/23 01:29:46;;;;;;;14.03;4.50;;;10.70;45.70;;;;;;5088640;28;20486;-84
2022/10/23 01:32:20;;;;;;;12.03;4.40;;;10.70;44.70;;;;;;5092275;28;20462;-84
2022/10/23 01:38:11;;;;;;;11.20;3.87;;;10.70;46.50;;;;;;5074677;28;20736;-83
2022/10/23 01:44:42;;;;;;;9.60;4.23;;;10.70;45.40;;;;;;5075114;28;20956;-84
2022/10/23 01:47:29;;;;;;;17.93;3.93;;;10.70;42.60;;;;;;5074030;28;20430;-89
2022/10/23 01:56:43;;;;;;;13.40;3.57;;;10.70;42.50;;;;;;5081357;28;20392;-89
2022/10/23 02:03:03;;;;;;;11.80;3.47;;;10.60;42.40;;;;;;5081543;28;20937;-84
2022/10/23 02:06:06;;;;;;;20.90;4.93;;;10.60;42.50;;;;;;5074856;28;20454;-84
2022/10/23 02:09:18;;;;;;;18.23;4.10;;;10.60;42.40;;;;;;5072887;28;20795;-84
2022/10/23 02:18:38;;;;;;;14.23;4.70;;;10.60;42.30;;;;;;5073944;28;20462;-84
2022/10/23 02:28:30;;;;;;;20.17;5.50;;;10.60;42.30;;;;;;5089835;28;20497;-84
2022/10/23 02:34:18;;;;;;;27.60;5.00;;;10.60;42.60;;;;;;5092866;28;20902;-84
2022/10/23 02:40:07;;;;;;;41.87;5.67;;;10.60;45.20;;;;;;5073920;28;20917;-84
2022/10/23 02:46:06;;;;;;;25.73;5.17;;;10.60;45.70;;;;;;5077812;28;20420;-84
2022/10/23 02:52:00;;;;;;;14.90;5.00;;;10.60;49.20;;;;;;5083402;28;20448;-84
2022/10/23 02:55:06;;;;;;;16.67;6.70;;;10.70;42.60;;;;;;5075713;28;20927;-84
2022/10/23 02:58:24;;;;;;;19.73;5.80;;;10.60;46.40;;;;;;5080564;28;20464;-84
2022/10/23 03:04:13;;;;;;;15.33;5.30;;;10.60;52.60;;;;;;5083245;28;20380;-89
2022/10/23 03:07:27;;;;;;;31.60;5.73;;;10.70;54.30;;;;;;5079740;28;20414;-89
2022/10/23 03:09:52;;;;;;;13.20;5.57;;;10.70;55.10;;;;;;5075777;28;20467;-90
2022/10/23 03:15:48;;;;;;;26.07;6.17;;;10.80;51.40;;;;;;5093580;28;20192;-89
2022/10/23 03:24:58;;;;;;;12.80;5.60;;;10.80;42.50;;;;;;5074836;28;20937;-89
2022/10/23 03:31:36;;;;;;;18.27;5.87;;;10.70;42.60;;;;;;5098169;28;20263;-90
2022/10/23 03:34:01;;;;;;;16.63;5.30;;;10.70;42.40;;;;;;5090732;28;20467;-89
2022/10/23 03:39:49;;;;;;;14.43;4.90;;;10.70;42.50;;;;;;5086347;28;20189;-89
2022/10/23 03:49:54;;;;;;;38.80;5.97;;;10.60;42.30;;;;;;5086693;28;20443;-89
2022/10/23 03:53:06;;;;;;;13.80;6.00;;;10.60;42.30;;;;;;5076408;28;20417;-89
2022/10/23 03:58:53;;;;;;;36.83;7.30;;;10.50;42.30;;;;;;5087371;28;20803;-89
2022/10/23 04:04:41;;;;;;;15.60;6.47;;;10.40;42.20;;;;;;5080583;28;20232;-89
2022/10/23 04:07:18;;;;;;;14.90;6.70;;;10.50;42.60;;;;;;5100592;28;20440;-89
2022/10/23 04:16:28;;;;;;;21.30;6.67;;;10.50;42.20;;;;;;5084784;28;20914;-87
2022/10/23 04:19:48;;;;;;;25.33;6.00;;;10.60;42.90;;;;;;5094634;28;20428;-84
2022/10/23 04:25:35;;;;;;;13.37;5.40;;;10.50;42.30;;;;;;5086535;28;20540;-85
2022/10/23 04:31:23;;;;;;;25.13;6.63;;;10.60;50.20;;;;;;5076447;28;20213;-85
2022/10/23 04:37:42;;;;;;;9.90;7.10;;;10.60;50.50;;;;;;5089028;28;20661;-84
2022/10/23 04:40:54;;;;;;;14.47;6.27;;;10.60;53.60;;;;;;5075980;28;20429;-85
2022/10/23 04:43:36;;;;;;;11.20;6.20;;;10.60;47.10;;;;;;5074731;28;20456;-84
2022/10/23 04:52:46;;;;;;;21.13;5.93;;;10.70;47.00;;;;;;5087283;28;20391;-84
2022/10/23 04:58:33;;;;;;;19.40;6.37;;;10.70;47.20;;;;;;5095349;28;20987;-84
2022/10/23 05:01:01;;;;;;;14.80;5.83;;;10.70;42.60;;;;;;5091062;28;20412;-84
2022/10/23 05:07:24;;;;;;;15.17;5.67;;;10.70;42.50;;;;;;5080469;28;20434;-89
2022/10/23 05:10:06;;;;;;;15.10;5.23;;;10.70;42.40;;;;;;5077487;28;20496;-88
2022/10/23 05:12:48;;;;;;;21.97;6.00;;;10.70;42.60;;;;;;5086127;28;20536;-89
2022/10/23 05:15:24;;;;;;;20.30;5.70;;;10.60;42.60;;;;;;5074914;28;20447;-89
2022/10/23 05:21:19;;;;;;;18.10;6.00;;;10.50;42.30;;;;;;5082382;28;20453;-84
2022/10/23 05:24:24;;;;;;;14.43;6.10;;;10.50;42.30;;;;;;5081182;28;20421;-84
2022/10/23 05:30:12;;;;;;;12.57;5.67;;;10.50;42.30;;;;;;5085887;28;21027;-85
2022/10/23 05:36:00;;;;;;;9.40;5.53;;;10.40;42.40;;;;;;5081601;28;20438;-89
2022/10/23 05:41:48;;;;;;;16.60;5.10;;;10.40;42.40;;;;;;5083949;28;20455;-89
2022/10/23 05:51:06;;;;;;;23.07;6.03;;;10.30;42.00;;;;;;5078744;28;20474;-89
2022/10/23 05:54:00;;;;;;;21.93;5.40;;;10.30;42.20;;;;;;5087490;28;20423;-89
2022/10/23 05:56:54;;;;;;;12.53;6.17;;;10.30;42.10;;;;;;5103956;28;20410;-81
2022/10/23 05:59:20;;;;;;;17.73;6.20;;;10.30;44.10;;;;;;5079910;28;20484;-83
2022/10/23 06:05:36;;;;;;;14.07;5.23;;;10.30;46.60;;;;;;5090294;28;20695;-79
2022/10/23 06:11:42;;;;;;;11.30;4.87;;;10.30;52.60;;;;;;5078361;28;20515;-79
2022/10/23 06:14:54;;;;;;;17.63;6.03;;;10.40;50.60;;;;;;5072582;28;20848;-79
2022/10/23 06:20:41;;;;;;;11.23;5.20;;;10.40;49.80;;;;;;5078229;28;20415;-79
2022/10/23 06:23:13;;;;;;;6.73;4.87;;;10.40;48.10;;;;;;5080918;28;20421;-79
2022/10/23 06:25:39;;;;;;;10.07;5.00;;;10.40;48.90;;;;;;5080645;28;20159;-79
2022/10/23 06:28:48;;;;;;;8.43;4.80;;;10.40;48.30;;;;;;5076790;28;20446;-79
2022/10/23 06:31:27;;;;;;;18.93;5.10;;;10.30;47.60;;;;;;5087344;28;20523;-79
2022/10/23 06:34:30;;;;;;;9.73;5.20;;;10.30;51.50;;;;;;5082820;28;20561;-79
2022/10/23 06:37:32;;;;;;;12.70;5.17;;;10.30;52.90;;;;;;5086012;28;20972;-79
2022/10/23 06:40:54;;;;;;;10.90;5.23;;;10.30;51.90;;;;;;5079278;28;20469;-79
2022/10/23 06:43:36;;;;;;;12.90;6.00;;;10.30;51.80;;;;;;5076419;28;20547;-79
2022/10/23 06:46:54;;;;;;;9.63;4.57;;;10.40;54.50;;;;;;5073561;28;20393;-79
2022/10/23 06:49:54;;;;;;;9.83;4.77;;;10.40;52.00;;;;;;5074054;28;20424;-77
2022/10/23 06:55:42;;;;;;;25.27;4.90;;;10.50;48.50;;;;;;5086910;28;20400;-77
2022/10/23 06:58:18;;;;;;;15.37;5.30;;;10.50;50.10;;;;;;5073581;28;20893;-78
2022/10/23 07:01:24;;;;;;;26.17;5.10;;;10.60;56.20;;;;;;5074927;28;20261;-77
2022/10/23 07:04:01;;;;;;;13.53;4.60;;;10.60;56.70;;;;;;5088300;28;20415;-81
2022/10/23 07:06:28;;;;;;;19.10;5.27;;;10.70;60.00;;;;;;5093075;28;20550;-79
2022/10/23 07:08:54;;;;;;;13.03;5.80;;;10.80;54.60;;;;;;5090517;28;20440;-79
2022/10/23 07:11:42;;;;;;;11.03;5.40;;;10.80;56.50;;;;;;5082129;28;20548;-79
2022/10/23 07:14:54;;;;;;;21.80;5.10;;;10.80;56.10;;;;;;5073262;28;20418;-79
2022/10/23 07:21:24;;;;;;;12.80;4.90;;;11.00;55.20;;;;;;5073259;28;20440;-79
2022/10/23 07:24:24;;;;;;;10.80;4.77;;;11.00;56.50;;;;;;5078269;28;20808;-79
2022/10/23 07:26:54;;;;;;;13.10;5.80;;;11.10;56.50;;;;;;5085408;28;20435;-79
2022/10/23 07:29:31;;;;;;;14.03;4.60;;;11.30;54.70;;;;;;5082832;28;20413;-79
2022/10/23 07:32:30;;;;;;;8.03;4.70;;;11.30;55.00;;;;;;5078073;28;20439;-79
2022/10/23 07:35:48;;;;;;;15.67;5.33;;;11.30;55.90;;;;;;5092732;28;21035;-79
2022/10/23 07:38:36;;;;;;;15.17;5.17;;;11.40;52.90;;;;;;5077993;28;20461;-79
2022/10/23 07:41:54;;;;;;;11.30;5.00;;;11.50;49.40;;;;;;5092219;28;20384;-80
2022/10/23 07:47:56;;;;;;;15.60;4.93;;;11.60;56.00;;;;;;5079343;28;20412;-79
2022/10/23 07:50:59;;;;;;;6.13;5.10;;;11.80;58.60;;;;;;5082002;28;20460;-77
2022/10/23 07:54:12;;;;;;;14.53;5.77;;;11.80;59.20;;;;;;5072875;28;20421;-76
2022/10/23 07:57:12;;;;;;;11.30;5.37;;;12.00;59.10;;;;;;5086708;28;20420;-76
2022/10/23 07:59:38;;;;;;;17.53;5.70;;;12.10;59.80;;;;;;5072775;28;20958;-78
2022/10/23 08:02:19;;;;;;;20.30;6.03;;;12.20;61.60;;;;;;5085782;28;20412;-77
2022/10/23 08:04:48;;;;;;;11.87;5.57;;;12.40;61.50;;;;;;5075334;28;20171;-78
2022/10/23 08:07:18;;;;;;;13.97;4.80;;;12.50;59.40;;;;;;5078594;28;20431;-79
2022/10/23 08:09:44;;;;;;;18.83;4.60;;;12.60;62.00;;;;;;5083199;28;20798;-78
2022/10/23 08:12:24;;;;;;;9.47;4.60;;;12.70;62.60;;;;;;5076370;28;20413;-79
2022/10/23 08:15:24;;;;;;;12.90;4.97;;;12.90;57.90;;;;;;5084822;28;20200;-79
2022/10/23 08:17:54;;;;;;;11.13;4.67;;;13.00;59.60;;;;;;5080839;28;20472;-79
2022/10/23 08:21:00;;;;;;;12.13;4.23;;;13.10;55.30;;;;;;5084590;28;20835;-79
2022/10/23 08:23:48;;;;;;;5.10;4.10;;;13.30;59.00;;;;;;5089082;28;20763;-80
2022/10/23 08:26:54;;;;;;;9.50;4.40;;;13.40;56.70;;;;;;5078915;28;20912;-80
2022/10/23 08:29:24;;;;;;;17.87;4.30;;;13.50;45.00;;;;;;5088184;28;20447;-77
2022/10/23 08:31:56;;;;;;;8.33;3.77;;;13.70;45.30;;;;;;5094352;28;20975;-78
2022/10/23 08:34:54;;;;;;;8.20;4.40;;;13.80;45.30;;;;;;5079796;28;20507;-77
2022/10/23 08:37:30;;;;;;;12.40;4.33;;;14.00;45.60;;;;;;5076084;28;20391;-78
2022/10/23 08:43:31;;;;;;;4.20;3.17;;;14.40;46.00;;;;;;5085297;28;20398;-78
2022/10/23 08:46:11;;;;;;;9.17;3.40;;;14.60;46.30;;;;;;5096007;28;20462;-78
2022/10/23 08:49:08;;;;;;;4.23;2.80;;;14.70;46.20;;;;;;5084591;28;20475;-78
2022/10/23 08:51:53;;;;;;;5.80;3.27;;;14.80;46.20;;;;;;5075663;28;20435;-76
2022/10/23 08:54:37;;;;;;;7.47;3.50;;;14.90;46.30;;;;;;5079604;28;20500;-77
2022/10/23 09:00:25;;;;;;;14.57;3.20;;;15.10;19.70;;;;;;5077741;28;20467;-76
2022/10/23 09:02:52;;;;;;;7.43;3.00;;;15.20;18.60;;;;;;5080685;28;20429;-76
2022/10/23 09:05:30;;;;;;;4.67;3.30;;;15.40;19.00;;;;;;5088501;28;20399;-77
2022/10/23 09:08:24;;;;;;;13.67;3.30;;;15.50;19.10;;;;;;5080806;28;20832;-77
2022/10/23 09:11:06;;;;;;;4.40;3.03;;;15.70;18.30;;;;;;5081444;28;20459;-77
2022/10/23 09:13:54;;;;;;;6.40;2.97;;;15.90;8.20;;;;;;5086086;28;20447;-79
2022/10/23 09:16:54;;;;;;;6.03;3.43;;;16.00;5.80;;;;;;5081117;28;21050;-78
2022/10/23 09:19:25;;;;;;;9.47;3.17;;;16.20;1.90;;;;;;5075193;28;20932;-78
2022/10/23 09:21:56;;;;;;;13.00;3.00;;;16.30;1.00;;;;;;5094704;28;20432;-76
2022/10/23 09:24:25;;;;;;;6.33;3.20;;;16.40;1.00;;;;;;5081702;28;20451;-76
2022/10/23 09:26:54;;;;;;;13.40;3.57;;;16.50;1.00;;;;;;5075473;28;20387;-76
2022/10/23 09:29:32;;;;;;;6.73;3.77;;;16.60;1.00;;;;;;5074651;28;20929;-76
2022/10/23 09:32:46;;;;;;;4.20;3.50;;;16.70;1.00;;;;;;5073949;28;20769;-77
2022/10/23 09:35:27;;;;;;;5.27;3.40;;;16.80;1.00;;;;;;5078416;28;20424;-77
2022/10/23 09:38:31;;;;;;;3.63;3.23;;;16.80;1.00;;;;;;5084947;28;20441;-75
2022/10/23 09:41:21;;;;;;;9.33;3.87;;;17.00;1.00;;;;;;5074864;28;20430;-79
2022/10/23 09:43:59;;;;;;;2.97;2.60;;;17.10;1.00;;;;;;5081736;28;20430;-76
2022/10/23 09:46:42;;;;;;;5.20;3.43;;;17.10;1.00;;;;;;5073957;28;20455;-77
2022/10/23 09:49:31;;;;;;;6.20;3.60;;;17.20;1.00;;;;;;5090235;28;20788;-76
2022/10/23 09:55:22;;;;;;;18.23;3.83;;;17.60;1.00;;;;;;5074343;28;20425;-78
2022/10/23 09:58:00;;;;;;;4.17;3.77;;;17.80;1.00;;;;;;5087596;28;20483;-78
2022/10/23 10:00:46;;;;;;;8.43;3.87;;;18.10;1.00;;;;;;5074252;28;20451;-77
2022/10/23 10:03:21;;;;;;;4.33;3.43;;;18.20;1.00;;;;;;5089674;28;20402;-78
2022/10/23 10:06:01;;;;;;;10.30;3.37;;;18.30;1.00;;;;;;5074617;28;20488;-76
2022/10/23 10:08:50;;;;;;;7.97;3.20;;;18.30;1.00;;;;;;5077157;28;20413;-76
2022/10/23 10:12:07;;;;;;;8.00;3.30;;;18.40;1.00;;;;;;5076842;28;20462;-77
2022/10/23 10:15:24;;;;;;;15.23;3.10;;;18.60;1.00;;;;;;4993991;28;20430;-81
2022/10/23 10:18:38;;;;;;;4.20;3.57;;;18.70;1.00;;;;;;5006628;28;20431;-82
2022/10/23 10:21:24;;;;;;;6.33;3.50;;;19.00;1.00;;;;;;4915906;29;20774;-79
2022/10/23 10:24:00;;;;;;;4.63;3.10;;;19.00;1.00;;;;;;4915886;29;20427;-77
2022/10/23 10:26:50;;;;;;;12.87;3.63;;;19.00;1.00;;;;;;4911433;29;20538;-76
2022/10/23 10:29:44;;;;;;;8.33;3.50;;;19.10;1.00;;;;;;4914248;29;20441;-78
2022/10/23 10:32:10;;;;;;;6.53;3.27;;;19.10;1.00;;;;;;4915586;29;20508;-76
2022/10/23 10:35:12;;;;;;;5.83;2.80;;;19.10;1.00;;;;;;4912114;29;20429;-77
2022/10/23 10:37:54;;;;;;;5.10;3.27;;;19.20;1.00;;;;;;4905494;29;20655;-81
2022/10/23 10:40:45;;;;;;;4.77;2.70;;;19.20;1.00;;;;;;4897395;29;20382;-79
2022/10/23 10:43:48;;;;;;;7.47;3.30;;;19.30;1.00;;;;;;4914899;29;20430;-78
2022/10/23 10:46:41;;;;;;;5.70;3.20;;;19.30;1.00;;;;;;4903349;29;20447;-78
2022/10/23 10:49:54;;;;;;;9.43;3.17;;;19.40;1.00;;;;;;4920701;28;20443;-86
2022/10/23 10:55:57;;;;;;;3.20;2.90;;;19.30;1.00;;;;;;5004075;28;20420;-91
2022/10/23 10:58:59;;;;;;;3.10;2.73;;;19.20;1.00;;;;;;5065889;28;20391;-92
2022/10/23 11:01:28;;;;;;;5.83;3.03;;;19.10;1.00;;;;;;5074080;28;20917;-90
2022/10/23 11:04:31;;;;;;;5.47;2.93;;;18.80;1.00;;;;;;5079614;28;20906;-91
2022/10/23 11:07:27;;;;;;;6.60;2.63;;;18.70;1.00;;;;;;5083619;28;20908;-85
2022/10/23 11:10:25;;;;;;;4.30;2.70;;;18.60;1.00;;;;;;5081768;28;20445;-86
2022/10/23 11:13:30;;;;;;;9.63;2.93;;;18.60;1.00;;;;;;5092843;28;20913;-85
2022/10/23 11:16:18;;;;;;;11.17;2.63;;;18.60;1.00;;;;;;5078486;28;20411;-85
2022/10/23 11:19:24;;;;;;;2.53;2.07;;;18.70;1.00;;;;;;5073129;28;20408;-85
2022/10/23 11:25:36;;;;;;;5.23;2.47;;;19.30;1.00;;;;;;5083474;28;20785;-91
2022/10/23 11:28:26;;;;;;;3.63;2.43;;;19.40;1.00;;;;;;5080436;28;20397;-90
2022/10/23 11:31:35;;;;;;;10.33;2.50;;;19.60;1.00;;;;;;5077512;28;20431;-91
2022/10/23 11:34:29;;;;;;;3.17;1.80;;;19.80;1.00;;;;;;5072651;28;20802;-90
2022/10/23 11:37:25;;;;;;;2.73;2.17;;;19.90;1.00;;;;;;5085934;28;20440;-91
2022/10/23 11:40:06;;;;;;;3.17;2.20;;;20.00;1.00;;;;;;5082984;28;20527;-91
2022/10/23 11:42:50;;;;;;;5.50;3.30;;;20.20;1.00;;;;;;5079400;28;20423;-91
2022/10/23 11:45:36;;;;;;;3.10;1.73;;;20.40;1.00;;;;;;5078156;28;20436;-91
2022/10/23 11:48:38;;;;;;;4.80;1.50;;;20.60;1.00;;;;;;5086542;28;20428;-85
2022/10/23 11:51:33;;;;;;;5.47;2.07;;;20.70;1.00;;;;;;5084689;28;20459;-90
2022/10/23 11:54:26;;;;;;;3.53;1.80;;;20.70;1.00;;;;;;5077464;28;20426;-80
2022/10/23 12:03:59;;;;;;;4.03;1.70;;;20.90;1.00;;;;;;5084313;28;20407;-81
2022/10/23 12:06:48;;;;;;;1.57;1.47;;;21.10;1.00;;;;;;5091425;28;20416;-81
2022/10/23 12:12:39;;;;;;;1.93;1.40;;;21.30;1.00;;;;;;5083335;28;20449;-83
2022/10/23 12:15:25;;;;;;;1.50;1.40;;;21.40;1.00;;;;;;5095713;28;20465;-83
2022/10/23 12:18:16;;;;;;;8.13;1.83;;;21.60;1.00;;;;;;5076317;28;20415;-84
2022/10/23 12:20:59;;;;;;;4.33;1.80;;;21.50;1.00;;;;;;5089791;28;20399;-82
2022/10/23 12:23:29;;;;;;;2.70;1.40;;;21.40;1.00;;;;;;5082195;28;20385;-83
2022/10/23 12:26:04;;;;;;;2.23;1.63;;;21.50;1.00;;;;;;5074777;28;20455;-80
2022/10/23 12:29:24;;;;;;;1.50;1.40;;;21.60;1.00;;;;;;5088080;28;20398;-81
2022/10/23 12:32:27;;;;;;;1.43;1.23;;;21.70;1.00;;;;;;5089248;28;20401;-81
2022/10/23 12:35:47;;;;;;;2.13;1.00;;;21.60;1.00;;;;;;5075878;28;20415;-79
2022/10/23 12:38:27;;;;;;;10.13;1.50;;;21.50;1.00;;;;;;5011518;28;20451;-79
2022/10/23 12:41:11;;;;;;;5.60;2.20;;;21.30;1.00;;;;;;5013952;28;20426;-79
2022/10/23 12:54:26;;;;;;;3.03;1.20;;;21.30;1.00;;;;;;5010802;28;20523;-81
2022/10/23 13:00:21;;;;;;;5.47;1.80;;;21.30;1.00;;;;;;5001173;28;20496;-82
2022/10/23 13:03:12;;;;;;;8.10;1.67;;;21.30;1.00;;;;;;5010230;28;20569;-82
2022/10/23 13:08:59;;;;;;;2.60;1.33;;;21.20;1.00;;;;;;5014136;28;20918;-89
2022/10/23 13:11:26;;;;;;;7.50;2.10;;;21.20;1.00;;;;;;4997999;28;20485;-89
2022/10/23 13:17:54;;;;;;;2.07;1.87;;;21.10;1.00;;;;;;5088421;28;20385;-89
2022/10/23 13:20:22;;;;;;;1.50;1.40;;;21.10;1.00;;;;;;5088468;28;20398;-89
2022/10/23 13:23:42;;;;;;;3.97;1.73;;;21.10;1.00;;;;;;5075563;28;20906;-81
2022/10/23 13:29:54;;;;;;;11.47;1.77;;;21.30;1.00;;;;;;5079312;28;20394;-81
2022/10/23 13:35:42;;;;;;;3.23;1.40;;;21.50;1.00;;;;;;5076104;28;20447;-81
2022/10/23 13:39:00;;;;;;;7.30;1.40;;;21.60;1.00;;;;;;5092899;28;20389;-88
2022/10/23 13:44:48;;;;;;;2.73;1.40;;;21.70;1.00;;;;;;5076517;28;20430;-88
2022/10/23 13:50:43;;;;;;;2.00;1.90;;;21.90;1.00;;;;;;5088455;28;20578;-89
2022/10/23 13:56:30;;;;;;;8.30;1.50;;;22.00;1.00;;;;;;5094306;28;20410;-89
2022/10/23 14:02:25;;;;;;;4.43;1.80;;;22.10;1.00;;;;;;5082377;28;20212;-89
2022/10/23 14:08:36;;;;;;;4.80;1.73;;;22.00;1.00;;;;;;5074786;28;20792;-82
2022/10/23 14:11:24;;;;;;;5.57;1.53;;;21.90;1.00;;;;;;5091698;28;20459;-81
2022/10/23 14:17:13;;;;;;;3.53;1.60;;;21.90;1.00;;;;;;5079658;28;20449;-81
2022/10/23 14:23:36;;;;;;;7.50;1.97;;;21.80;1.00;;;;;;5078148;28;20473;-81
2022/10/23 14:29:31;;;;;;;14.10;2.10;;;21.80;1.00;;;;;;5077312;28;20454;-81
2022/10/23 14:32:01;;;;;;;2.43;1.73;;;21.60;1.00;;;;;;5077882;28;20428;-81
2022/10/23 14:34:27;;;;;;;3.80;2.00;;;21.70;1.00;;;;;;5075302;28;20496;-81
2022/10/23 14:37:12;;;;;;;5.57;2.27;;;21.70;1.00;;;;;;5075723;28;20901;-81
2022/10/23 14:39:43;;;;;;;8.50;2.00;;;21.60;1.00;;;;;;5082680;28;20418;-90
2022/10/23 14:42:33;;;;;;;5.20;2.30;;;21.60;1.00;;;;;;5095385;28;20565;-83
2022/10/23 14:45:31;;;;;;;14.37;2.20;;;21.50;1.00;;;;;;5084990;28;20439;-86
2022/10/23 14:48:13;;;;;;;9.63;1.80;;;21.50;1.00;;;;;;5084626;28;20474;-82
2022/10/23 14:50:46;;;;;;;3.87;1.90;;;21.40;1.00;;;;;;5075351;28;20794;-86
2022/10/23 14:53:14;;;;;;;14.73;2.30;;;21.30;1.00;;;;;;5083399;28;20938;-75
2022/10/23 14:55:43;;;;;;;11.47;1.80;;;21.20;1.00;;;;;;5085730;28;20420;-76
2022/10/23 14:58:14;;;;;;;6.97;1.60;;;21.10;1.00;;;;;;5082420;28;20977;-75
2022/10/23 15:00:40;;;;;;;4.50;1.80;;;21.00;1.00;;;;;;5074273;28;20430;-75
2022/10/23 15:03:06;;;;;;;3.50;1.60;;;20.90;1.00;;;;;;5074944;28;20414;-76
2022/10/23 15:05:31;;;;;;;6.23;2.30;;;20.90;1.00;;;;;;5082800;28;20448;-75
2022/10/23 15:08:01;;;;;;;9.77;2.47;;;20.80;1.00;;;;;;5079472;28;20482;-77
2022/10/23 15:10:31;;;;;;;4.00;2.23;;;20.70;1.00;;;;;;5085868;28;20219;-81
2022/10/23 15:13:01;;;;;;;9.70;2.40;;;20.60;1.00;;;;;;5078367;28;20790;-81
2022/10/23 15:15:31;;;;;;;6.33;2.47;;;20.50;1.00;;;;;;5093524;28;20891;-81
2022/10/23 15:21:31;;;;;;;8.17;2.10;;;20.30;1.00;;;;;;5082679;28;20837;-81
2022/10/23 15:24:25;;;;;;;9.63;2.67;;;20.20;1.00;;;;;;5080497;28;20917;-81
2022/10/23 15:27:31;;;;;;;3.30;2.27;;;20.10;1.00;;;;;;5090205;28;20441;-80
2022/10/23 15:30:01;;;;;;;1.90;1.67;;;20.00;1.00;;;;;;5084140;28;20459;-81
2022/10/23 15:33:01;;;;;;;8.23;2.17;;;19.90;1.00;;;;;;5080961;28;20444;-81
2022/10/23 15:35:31;;;;;;;7.20;2.03;;;19.80;1.00;;;;;;5081500;28;20439;-83
2022/10/23 15:38:01;;;;;;;11.27;2.20;;;19.60;1.00;;;;;;5084731;28;20440;-82
2022/10/23 15:40:31;;;;;;;2.83;2.23;;;19.50;1.00;;;;;;5110642;28;20929;-83
2022/10/23 15:43:31;;;;;;;5.60;1.83;;;19.40;1.00;;;;;;5088986;28;20442;-82
2022/10/23 15:46:01;;;;;;;6.20;1.80;;;19.30;1.00;;;;;;5076831;28;20423;-82
2022/10/23 15:48:31;;;;;;;12.87;2.20;;;19.20;1.00;;;;;;5095074;28;20493;-81
2022/10/23 15:51:01;;;;;;;7.20;2.00;;;19.10;1.00;;;;;;5094967;28;20855;-79
2022/10/23 15:53:27;;;;;;;13.37;2.20;;;19.10;1.00;;;;;;5086411;28;20414;-76
2022/10/23 15:56:01;;;;;;;16.33;3.40;;;19.00;1.00;;;;;;5080673;28;20451;-81
2022/10/23 15:58:31;;;;;;;9.20;2.20;;;18.90;1.00;;;;;;5087754;28;20185;-81
2022/10/23 16:00:57;;;;;;;10.93;2.57;;;18.80;1.00;;;;;;5080601;28;20448;-86
2022/10/23 16:03:35;;;;;;;20.07;2.87;;;18.70;1.00;;;;;;5082588;28;20409;-87
2022/10/23 16:06:31;;;;;;;14.17;3.33;;;18.60;1.00;;;;;;5088602;28;21042;-86
2022/10/23 16:09:02;;;;;;;11.43;2.70;;;18.60;1.00;;;;;;5093639;28;20398;-87
2022/10/23 16:11:34;;;;;;;12.47;2.60;;;18.50;1.00;;;;;;5084744;28;20464;-83
2022/10/23 16:14:02;;;;;;;5.73;2.50;;;18.40;1.00;;;;;;5075238;28;20406;-84
2022/10/23 16:16:32;;;;;;;5.63;2.60;;;18.30;1.00;;;;;;5076351;28;20466;-83
2022/10/23 16:19:03;;;;;;;8.57;2.20;;;18.30;1.00;;;;;;5082876;28;20473;-85
2022/10/23 16:21:34;;;;;;;9.63;3.33;;;18.10;1.00;;;;;;5076432;28;20810;-83
2022/10/23 16:24:03;;;;;;;6.13;2.60;;;18.00;1.00;;;;;;5076625;28;20399;-85
2022/10/23 16:27:01;;;;;;;7.80;2.67;;;18.00;1.00;;;;;;5079785;28;20790;-86
2022/10/23 16:30:01;;;;;;;14.03;2.77;;;17.90;1.00;;;;;;5087332;28;20402;-86
2022/10/23 16:32:31;;;;;;;18.43;2.50;;;17.90;1.00;;;;;;5079765;28;20406;-86
2022/10/23 16:35:01;;;;;;;8.00;2.90;;;17.80;1.00;;;;;;5085998;28;20434;-85
2022/10/23 16:37:32;;;;;;;11.97;3.20;;;17.80;1.00;;;;;;5093253;28;20388;-90
2022/10/23 16:40:19;;;;;;;4.80;2.90;;;17.70;1.00;;;;;;5095047;28;20488;-86
2022/10/23 16:46:15;;;;;;;17.30;3.33;;;17.60;1.00;;;;;;5076276;28;20437;-82
2022/10/23 16:52:13;;;;;;;6.40;2.63;;;17.60;1.00;;;;;;5084176;28;20416;-80
2022/10/23 16:58:25;;;;;;;12.00;3.30;;;17.50;1.00;;;;;;5090485;28;20427;-78
2022/10/23 17:07:49;;;;;;;18.93;3.10;;;17.30;1.00;;;;;;5086391;28;20413;-87
2022/10/23 17:13:40;;;;;;;18.00;3.73;;;17.10;1.00;;;;;;5076780;28;20464;-83
2022/10/23 17:16:35;;;;;;;12.53;3.17;;;17.10;1.00;;;;;;5095404;28;20433;-81
2022/10/23 17:25:48;;;;;;;6.80;3.43;;;17.00;1.00;;;;;;5075311;28;20397;-82
2022/10/23 17:28:49;;;;;;;11.47;3.23;;;16.90;1.00;;;;;;5074278;28;20794;-87
2022/10/23 17:31:38;;;;;;;10.07;3.30;;;16.90;1.00;;;;;;5091248;28;20432;-87
2022/10/23 17:34:25;;;;;;;11.07;3.33;;;16.90;1.00;;;;;;5076421;28;20475;-86
2022/10/23 17:43:35;;;;;;;13.60;4.00;;;16.80;1.00;;;;;;5078964;28;20424;-86
2022/10/23 17:49:25;;;;;;;13.40;4.80;;;16.60;1.00;;;;;;5074234;28;20475;-83
2022/10/23 17:52:01;;;;;;;26.40;5.47;;;16.40;1.00;;;;;;5087591;28;20452;-86
2022/10/23 17:55:01;;;;;;;17.53;5.60;;;16.50;1.00;;;;;;5078878;28;20457;-83
2022/10/23 17:57:56;;;;;;;15.23;4.53;;;16.50;1.00;;;;;;5088082;28;20776;-83
2022/10/23 18:00:49;;;;;;;16.20;5.07;;;16.60;2.50;;;;;;5083574;28;20452;-80
2022/10/23 18:06:47;;;;;;;12.10;4.70;;;16.70;4.60;;;;;;5130200;27;20293;-82
2022/10/23 18:09:49;;;;;;;9.63;3.90;;;16.80;7.30;;;;;;5110259;28;20427;-83
2022/10/23 18:12:19;;;;;;;10.40;4.53;;;16.80;8.90;;;;;;5105026;28;20431;-82
2022/10/23 18:18:06;;;;;;;7.70;4.33;;;16.80;11.40;;;;;;5102260;28;20471;-87
2022/10/23 18:24:02;;;;;;;9.90;4.43;;;16.90;15.90;;;;;;5092432;28;20555;-85
2022/10/23 18:26:44;;;;;;;8.97;5.00;;;16.80;18.20;;;;;;5119363;28;20454;-86
2022/10/23 18:29:38;;;;;;;15.20;4.60;;;16.80;22.40;;;;;;5112960;28;20939;-84
2022/10/23 18:32:56;;;;;;;9.20;4.20;;;16.80;27.80;;;;;;5108886;28;20416;-85
2022/10/23 18:35:55;;;;;;;6.80;4.40;;;16.90;29.10;;;;;;5108099;28;20418;-85
2022/10/23 18:38:43;;;;;;;12.33;4.60;;;16.90;30.10;;;;;;5108465;28;20437;-84
2022/10/23 18:44:31;;;;;;;12.23;4.13;;;16.90;36.70;;;;;;5092585;28;20824;-88
2022/10/23 18:46:58;;;;;;;12.07;4.47;;;16.90;44.10;;;;;;5110305;28;20409;-88
2022/10/23 18:49:55;;;;;;;14.90;5.13;;;16.90;48.10;;;;;;5108656;28;20174;-88
2022/10/23 18:52:37;;;;;;;9.80;4.50;;;17.00;41.40;;;;;;5103545;28;20430;-88
2022/10/23 18:55:43;;;;;;;11.40;4.43;;;17.10;33.10;;;;;;5102674;28;20449;-88
2022/10/23 18:58:08;;;;;;;25.13;5.30;;;17.10;31.10;;;;;;5098452;28;20512;-85
2022/10/23 19:01:07;;;;;;;13.63;4.70;;;17.10;26.80;;;;;;5110711;28;20968;-85
2022/10/23 19:04:14;;;;;;;17.53;4.40;;;17.10;26.00;;;;;;5096536;28;20430;-85
2022/10/23 19:06:41;;;;;;;15.83;4.77;;;17.10;23.30;;;;;;5098338;28;20479;-85
2022/10/23 19:09:14;;;;;;;16.67;4.00;;;17.10;20.90;;;;;;5107675;28;20428;-84
2022/10/23 19:11:55;;;;;;;13.80;4.50;;;17.10;19.90;;;;;;5100639;28;20980;-83
2022/10/23 19:14:27;;;;;;;14.83;5.93;;;17.00;18.80;;;;;;5093486;28;20793;-83
2022/10/23 19:20:55;;;;;;;13.30;4.77;;;16.80;15.70;;;;;;5088326;28;20425;-84
2022/10/23 19:26:58;;;;;;;18.93;5.23;;;16.60;16.40;;;;;;5095060;28;20472;-84
2022/10/23 19:32:46;;;;;;;8.50;4.80;;;16.40;14.80;;;;;;5096040;28;20909;-80
2022/10/23 19:35:20;;;;;;;13.07;4.20;;;16.30;14.10;;;;;;5094095;28;20409;-81
2022/10/23 19:37:55;;;;;;;17.13;4.90;;;16.20;14.00;;;;;;5099707;28;20427;-82
2022/10/23 19:40:43;;;;;;;18.50;4.90;;;16.20;14.20;;;;;;5098224;28;20549;-82
2022/10/23 19:43:13;;;;;;;10.60;4.67;;;16.10;15.10;;;;;;5091275;28;20432;-85
2022/10/23 19:45:58;;;;;;;19.60;5.00;;;16.00;14.30;;;;;;5089105;28;20473;-87
2022/10/23 19:52:25;;;;;;;20.50;4.30;;;16.00;21.10;;;;;;5079875;28;20485;-88
2022/10/23 19:54:51;;;;;;;18.73;5.13;;;16.00;23.60;;;;;;5092918;28;20415;-81
2022/10/23 19:57:18;;;;;;;14.90;4.50;;;16.10;26.30;;;;;;5085957;28;20420;-80
2022/10/23 19:59:50;;;;;;;19.30;5.07;;;16.00;28.00;;;;;;5084810;28;20768;-80